createdAt,value
2019-05-15T00:03:01.474Z,79.34
2019-05-15T00:06:08.242Z,79.71
2019-05-15T00:09:11.224Z,79.95
2019-05-15T00:12:15.164Z,79.93
2019-05-15T00:15:19.115Z,80.03
2019-05-15T00:18:23.020Z,80.24
2019-05-15T00:21:28.820Z,80.93
2019-05-15T00:24:32.581Z,82.00
2019-05-15T00:27:38.678Z,82.52
2019-05-15T00:30:42.157Z,82.87
2019-05-15T00:33:48.130Z,82.52
2019-05-15T00:36:51.778Z,81.96
2019-05-15T00:39:55.871Z,81.71
2019-05-15T00:42:59.961Z,82.42
2019-05-15T00:46:04.121Z,83.17
2019-05-15T00:49:08.804Z,83.80
2019-05-15T00:52:12.983Z,82.57
2019-05-15T00:55:19.131Z,82.16
2019-05-15T00:58:22.858Z,82.24
2019-05-15T01:01:28.701Z,82.22
2019-05-15T01:04:33.162Z,82.22
2019-05-15T01:07:39.243Z,82.50
2019-05-15T01:10:43.127Z,82.64
2019-05-15T01:13:48.141Z,82.92
2019-05-15T01:16:52.319Z,83.19
2019-05-15T01:19:56.228Z,83.51
2019-05-15T01:23:01.070Z,83.03
2019-05-15T01:26:05.370Z,82.99
2019-05-15T01:29:09.472Z,83.08
2019-05-15T01:32:13.693Z,83.17
2019-05-15T01:35:18.133Z,83.27
2019-05-15T01:38:22.032Z,83.34
2019-05-15T01:41:28.046Z,83.15
2019-05-15T01:44:31.616Z,83.13
2019-05-15T01:47:35.937Z,83.26
2019-05-15T01:50:39.742Z,83.30
2019-05-15T01:53:43.712Z,83.55
2019-05-15T01:56:49.483Z,83.65
2019-05-15T01:59:57.389Z,83.65
2019-05-15T02:02:59.364Z,83.55
2019-05-15T02:06:03.234Z,83.51
2019-05-15T02:09:08.492Z,83.47
2019-05-15T02:12:12.311Z,83.72
2019-05-15T02:15:18.966Z,83.99
2019-05-15T02:18:23.123Z,84.16
2019-05-15T02:21:28.861Z,84.35
2019-05-15T02:24:33.079Z,84.54
2019-05-15T02:27:39.275Z,84.40
2019-05-15T02:30:42.798Z,84.49
2019-05-15T02:33:49.601Z,84.62
2019-05-15T02:36:52.605Z,84.78
2019-05-15T02:39:58.990Z,84.94
2019-05-15T02:43:02.738Z,85.01
2019-05-15T02:46:09.947Z,85.13
2019-05-15T02:49:12.442Z,85.17
2019-05-15T02:52:19.641Z,85.32
2019-05-15T02:55:22.472Z,85.38
2019-05-15T02:58:29.179Z,85.59
2019-05-15T03:01:32.482Z,86.00
2019-05-15T03:04:39.807Z,85.95
2019-05-15T03:07:42.679Z,86.00
2019-05-15T03:10:49.387Z,85.89
2019-05-15T03:13:52.258Z,85.51
2019-05-15T03:16:59.332Z,85.08
2019-05-15T03:20:02.385Z,85.07
2019-05-15T03:23:09.579Z,85.40
2019-05-15T03:26:11.957Z,85.50
2019-05-15T03:29:15.887Z,85.73
2019-05-15T03:32:32.243Z,86.21
2019-05-15T03:35:25.633Z,85.89
2019-05-15T03:38:30.223Z,85.36
2019-05-15T03:41:34.642Z,85.61
2019-05-15T03:44:39.518Z,86.06
2019-05-15T03:47:43.561Z,86.48
2019-05-15T03:50:48.911Z,86.15
2019-05-15T03:53:52.993Z,85.76
2019-05-15T03:56:58.494Z,85.47
2019-05-15T04:00:02.633Z,85.80
2019-05-15T04:03:10.281Z,86.31
2019-05-15T04:06:12.674Z,86.29
2019-05-15T04:09:18.943Z,85.79
2019-05-15T04:12:22.651Z,85.64
2019-05-15T04:15:30.205Z,85.68
2019-05-15T04:18:33.083Z,85.78
2019-05-15T04:21:41.383Z,86.03
2019-05-15T04:24:43.893Z,86.10
2019-05-15T04:27:49.570Z,86.21
2019-05-15T04:30:53.423Z,86.00
2019-05-15T04:33:59.342Z,86.43
2019-05-15T04:37:03.350Z,86.94
2019-05-15T04:40:09.455Z,86.91
2019-05-15T04:43:13.936Z,86.86
2019-05-15T04:46:19.794Z,87.20
2019-05-15T04:49:24.785Z,86.83
2019-05-15T04:52:30.503Z,86.17
2019-05-15T04:55:35.185Z,85.97
2019-05-15T04:58:39.960Z,86.14
2019-05-15T05:01:44.069Z,86.15
2019-05-15T05:04:49.356Z,86.04
2019-05-15T05:07:53.832Z,85.42
2019-05-15T05:10:59.117Z,85.37
2019-05-15T05:14:08.488Z,85.30
2019-05-15T05:17:11.866Z,84.96
2019-05-15T05:20:19.111Z,84.73
2019-05-15T05:23:22.983Z,84.46
2019-05-15T05:26:29.171Z,83.97
2019-05-15T05:29:32.621Z,83.75
2019-05-15T05:32:39.040Z,83.21
2019-05-15T05:35:43.226Z,81.87
2019-05-15T05:38:49.380Z,81.66
2019-05-15T05:41:53.307Z,80.72
2019-05-15T05:44:58.247Z,79.80
2019-05-15T05:48:02.615Z,80.03
2019-05-15T05:51:08.973Z,77.39
2019-05-15T05:54:12.523Z,76.88
2019-05-15T05:57:16.319Z,75.83
2019-05-15T06:00:24.089Z,75.56
2019-05-15T06:03:28.314Z,75.44
2019-05-15T06:06:32.386Z,74.52
2019-05-15T06:09:38.035Z,71.87
2019-05-15T06:12:42.423Z,71.87
2019-05-15T06:15:48.875Z,72.29
2019-05-15T06:18:52.541Z,72.05
2019-05-15T06:22:00.711Z,68.62
2019-05-15T06:25:05.044Z,66.11
2019-05-15T06:28:09.199Z,65.95
2019-05-15T06:31:13.582Z,65.40
2019-05-15T06:34:18.015Z,64.39
2019-05-15T06:37:22.039Z,62.18
2019-05-15T06:40:28.735Z,58.92
2019-05-15T06:43:31.699Z,56.71
2019-05-15T06:46:35.597Z,54.75
2019-05-15T06:49:39.470Z,51.71
2019-05-15T06:52:43.297Z,54.88
2019-05-15T06:55:48.623Z,52.91
2019-05-15T06:58:52.780Z,53.73
2019-05-15T07:01:59.414Z,54.13
2019-05-15T07:05:02.314Z,54.34
2019-05-15T07:08:08.887Z,54.72
2019-05-15T07:11:11.910Z,52.43
2019-05-15T07:14:18.043Z,52.44
2019-05-15T07:17:21.480Z,51.68
2019-05-15T07:20:28.344Z,51.81
2019-05-15T07:23:31.224Z,51.50
2019-05-15T07:26:35.084Z,52.07
2019-05-15T07:29:41.328Z,52.11
2019-05-15T07:32:45.365Z,51.46
2019-05-15T07:35:49.748Z,51.03
2019-05-15T07:38:53.779Z,50.52
2019-05-15T07:41:57.881Z,49.45
2019-05-15T07:45:01.841Z,50.82
2019-05-15T07:48:05.863Z,51.45
2019-05-15T07:51:11.680Z,49.14
2019-05-15T07:54:15.338Z,48.06
2019-05-15T07:57:19.563Z,46.92
2019-05-15T08:00:24.111Z,47.72
2019-05-15T08:03:29.205Z,44.75
2019-05-15T08:06:33.438Z,43.07
2019-05-15T08:09:39.079Z,42.81
2019-05-15T08:12:42.813Z,43.25
2019-05-15T08:15:48.847Z,43.39
2019-05-15T08:18:52.310Z,44.15
2019-05-15T08:21:58.190Z,42.67
2019-05-15T08:25:01.862Z,39.47
2019-05-15T08:28:08.352Z,41.20
2019-05-15T08:31:11.493Z,40.66
2019-05-15T08:34:16.404Z,41.98
2019-05-15T08:37:20.766Z,41.84
2019-05-15T08:40:24.660Z,43.74
2019-05-15T08:43:31.206Z,43.31
2019-05-15T08:46:34.291Z,43.29
2019-05-15T08:49:40.895Z,42.59
2019-05-15T08:52:43.967Z,40.29
2019-05-15T08:55:48.176Z,41.28
2019-05-15T08:58:52.041Z,42.67
2019-05-15T09:01:58.165Z,41.26
2019-05-15T09:05:01.673Z,39.41
2019-05-15T09:08:05.584Z,41.33
2019-05-15T09:11:09.755Z,39.14
2019-05-15T09:14:15.459Z,40.30
2019-05-15T09:17:19.569Z,38.64
2019-05-15T09:20:23.596Z,37.82
2019-05-15T09:23:28.893Z,39.18
2019-05-15T09:26:40.126Z,39.93
2019-05-15T09:29:40.102Z,39.78
2019-05-15T09:32:44.113Z,37.45
2019-05-15T09:35:49.471Z,37.46
2019-05-15T09:39:00.145Z,39.43
2019-05-15T09:42:08.479Z,38.56
2019-05-15T09:45:12.932Z,37.16
2019-05-15T09:48:19.616Z,39.90
2019-05-15T09:51:22.537Z,39.06
2019-05-15T09:54:29.062Z,40.14
2019-05-15T09:57:32.565Z,40.26
2019-05-15T10:00:38.634Z,39.00
2019-05-15T10:03:44.560Z,38.25
2019-05-15T10:06:48.705Z,39.35
2019-05-15T10:09:52.785Z,39.41
2019-05-15T10:12:59.916Z,39.15
2019-05-15T10:16:04.136Z,38.57
2019-05-15T10:19:08.939Z,39.15
2019-05-15T10:22:13.262Z,39.23
2019-05-15T10:25:19.011Z,38.75
2019-05-15T10:28:22.890Z,40.12
2019-05-15T10:31:28.289Z,39.24
2019-05-15T10:34:32.505Z,39.73
2019-05-15T10:37:38.832Z,39.11
2019-05-15T10:40:58.548Z,39.37
2019-05-15T10:43:55.978Z,38.94
2019-05-15T10:46:53.333Z,38.03
2019-05-15T10:49:57.322Z,38.48
2019-05-15T10:53:01.182Z,40.38
2019-05-15T10:56:05.161Z,39.01
2019-05-15T10:59:08.964Z,38.57
2019-05-15T11:02:12.935Z,39.89
2019-05-15T11:05:17.983Z,39.42
2019-05-15T11:08:22.142Z,40.45
2019-05-15T11:11:25.979Z,41.70
2019-05-15T11:14:29.966Z,38.60
2019-05-15T11:17:33.903Z,37.41
2019-05-15T11:20:40.934Z,41.31
2019-05-15T11:23:43.352Z,39.27
2019-05-15T11:26:49.959Z,39.80
2019-05-15T11:29:53.004Z,41.75
2019-05-15T11:32:58.721Z,40.75
2019-05-15T11:36:06.000Z,40.29
2019-05-15T11:39:08.537Z,40.86
2019-05-15T11:42:12.445Z,38.65
2019-05-15T11:45:18.521Z,40.13
2019-05-15T11:48:22.364Z,40.18
2019-05-15T11:51:28.575Z,39.04
2019-05-15T11:54:31.917Z,36.90
2019-05-15T11:57:42.619Z,39.18
2019-05-15T12:00:41.520Z,37.78
2019-05-15T12:03:45.381Z,36.27
2019-05-15T12:06:58.920Z,38.23
2019-05-15T12:09:55.006Z,37.50
2019-05-15T12:12:59.654Z,37.22
2019-05-15T12:16:03.557Z,37.81
2019-05-15T12:22:13.189Z,37.49
2019-05-15T12:25:17.191Z,37.49
2019-05-15T12:28:21.080Z,38.81
2019-05-15T12:31:24.969Z,38.40
2019-05-15T12:34:29.067Z,36.14
2019-05-15T12:37:32.881Z,35.51
2019-05-15T13:02:18.577Z,34.39
2019-05-15T13:05:21.789Z,36.15
2019-05-15T13:08:25.717Z,35.08
2019-05-15T13:11:29.695Z,35.14
2019-05-15T13:14:33.748Z,35.27
2019-05-15T13:17:38.801Z,32.47
2019-05-15T13:20:42.939Z,33.92
2019-05-15T13:23:48.106Z,35.82
2019-05-15T13:26:52.158Z,34.81
2019-05-15T13:29:58.279Z,35.15
2019-05-15T13:33:01.711Z,35.65
2019-05-15T13:36:05.649Z,35.70
2019-05-15T13:39:09.597Z,34.29
2019-05-15T13:42:13.501Z,36.51
2019-05-15T13:45:18.408Z,33.90
2019-05-15T13:48:22.313Z,34.17
2019-05-15T13:51:28.830Z,33.55
2019-05-15T13:54:31.719Z,33.69
2019-05-15T13:57:38.077Z,32.43
2019-05-15T14:00:41.372Z,31.95
2019-05-15T14:03:45.285Z,33.49
2019-05-15T14:06:49.081Z,33.43
2019-05-15T14:09:52.943Z,32.32
2019-05-15T14:12:58.372Z,32.91
2019-05-15T14:16:02.342Z,33.84
2019-05-15T14:19:08.304Z,33.29
2019-05-15T14:22:12.039Z,33.03
2019-05-15T14:25:18.134Z,32.83
2019-05-15T14:28:21.795Z,32.37
2019-05-15T14:31:27.892Z,33.83
2019-05-15T14:34:31.201Z,32.21
2019-05-15T14:37:35.097Z,32.86
2019-05-15T14:40:39.057Z,32.30
2019-05-15T14:43:42.950Z,32.49
2019-05-15T14:46:50.578Z,34.99
2019-05-15T14:49:52.486Z,31.98
2019-05-15T14:52:58.428Z,31.46
2019-05-15T14:56:02.091Z,32.11
2019-05-15T14:59:08.500Z,32.10
2019-05-15T15:02:11.991Z,32.86
2019-05-15T15:05:15.942Z,32.25
2019-05-15T15:08:25.288Z,29.05
2019-05-15T15:11:28.497Z,30.46
2019-05-15T15:14:32.621Z,29.17
2019-05-15T15:17:38.671Z,29.74
2019-05-15T15:20:42.179Z,30.02
2019-05-15T15:23:48.117Z,30.29
2019-05-15T15:26:51.660Z,30.14
2019-05-15T15:29:55.538Z,30.78
2019-05-15T15:33:01.188Z,30.89
2019-05-15T15:36:05.071Z,30.30
2019-05-15T15:39:09.062Z,30.23
2019-05-15T15:42:12.899Z,31.70
2019-05-15T15:45:19.272Z,31.63
2019-05-15T15:48:22.859Z,30.75
2019-05-15T15:51:28.574Z,32.47
2019-05-15T15:54:32.409Z,32.08
2019-05-15T15:57:36.286Z,32.03
2019-05-15T16:00:40.232Z,31.65
2019-05-15T16:03:44.131Z,33.56
2019-05-15T16:06:48.458Z,33.39
2019-05-15T16:09:52.299Z,33.43
2019-05-15T16:12:58.216Z,34.54
2019-05-15T16:16:02.006Z,33.45
2019-05-15T16:19:05.848Z,35.54
2019-05-15T16:22:09.772Z,36.19
2019-05-15T16:25:13.861Z,37.04
2019-05-15T16:28:18.487Z,37.65
2019-05-15T16:31:22.649Z,39.66
2019-05-15T16:34:28.376Z,39.88
2019-05-15T16:37:31.988Z,39.69
2019-05-15T16:40:38.121Z,39.74
2019-05-15T16:43:41.491Z,40.35
2019-05-15T16:46:47.995Z,40.60
2019-05-15T16:49:50.961Z,41.31
2019-05-15T16:52:54.913Z,41.26
2019-05-15T16:55:58.888Z,41.23
2019-05-15T16:59:03.429Z,41.30
2019-05-15T17:02:08.747Z,41.61
2019-05-15T17:05:12.909Z,43.77
2019-05-15T17:08:17.945Z,42.26
2019-05-15T17:11:22.125Z,42.49
2019-05-15T17:14:28.573Z,41.24
2019-05-15T17:17:31.551Z,42.96
2019-05-15T17:20:35.508Z,42.99
2019-05-15T17:23:39.344Z,44.01
2019-05-15T17:26:43.295Z,45.60
2019-05-15T17:29:49.059Z,46.66
2019-05-15T17:32:52.742Z,47.83
2019-05-15T17:35:58.048Z,48.74
2019-05-15T17:39:01.995Z,49.15
2019-05-15T17:42:05.898Z,49.67
2019-05-15T17:45:10.090Z,49.07
2019-05-15T17:48:14.011Z,49.35
2019-05-15T17:51:17.872Z,49.77
2019-05-15T17:54:21.759Z,49.82
2019-05-15T17:57:33.716Z,49.76
2019-05-15T18:00:39.386Z,49.86
2019-05-15T18:03:43.514Z,50.02
2019-05-15T18:06:48.398Z,50.70
2019-05-15T18:09:54.420Z,51.87
2019-05-15T18:12:58.745Z,52.31
2019-05-15T18:16:04.217Z,52.88
2019-05-15T18:19:45.404Z,53.37
2019-05-15T18:47:52.489Z,56.77
2019-05-15T18:57:13.017Z,57.83
2019-05-15T18:59:48.718Z,58.60
2019-05-15T19:03:22.624Z,58.97
2019-05-15T19:06:45.200Z,59.53
2019-05-15T19:10:00.477Z,59.42
2019-05-15T19:13:28.614Z,59.07
2019-05-15T19:17:09.854Z,59.05
2019-05-15T19:20:28.416Z,59.47
2019-05-15T19:23:50.726Z,58.78
2019-05-15T19:27:47.169Z,59.28
2019-05-15T19:30:58.349Z,59.75
2019-05-15T19:34:19.466Z,60.01
2019-05-15T19:38:09.908Z,60.65
2019-05-15T19:41:54.528Z,60.59
2019-05-15T19:44:59.031Z,61.25
2019-05-15T19:48:03.924Z,61.51
2019-05-15T19:51:09.154Z,62.17
2019-05-15T19:54:13.921Z,62.86
2019-05-15T19:57:18.803Z,63.32
2019-05-15T20:00:23.294Z,63.39
2019-05-15T20:03:28.479Z,63.43
2019-05-15T20:06:33.061Z,63.59
2019-05-15T20:09:38.377Z,63.81
2019-05-15T20:12:42.797Z,63.96
2019-05-15T20:15:48.558Z,64.22
2019-05-15T20:18:53.086Z,64.69
2019-05-15T20:21:58.323Z,65.30
2019-05-15T20:25:03.001Z,65.79
2019-05-15T20:28:08.413Z,66.17
2019-05-15T20:31:13.218Z,67.19
2019-05-15T20:34:17.796Z,67.80
2019-05-15T20:37:22.261Z,68.39
2019-05-15T20:40:28.157Z,68.37
2019-05-15T20:43:32.827Z,68.02
2019-05-15T20:46:39.210Z,68.29
2019-05-15T20:49:43.953Z,68.79
2019-05-15T20:52:49.175Z,69.21
2019-05-15T20:55:54.148Z,69.58
2019-05-15T20:58:59.002Z,70.09
2019-05-15T21:02:03.557Z,70.35
2019-05-15T21:05:09.044Z,70.36
2019-05-15T21:08:13.808Z,69.95
2019-05-15T21:11:18.414Z,69.63
2019-05-15T21:14:23.441Z,69.47
2019-05-15T21:17:28.280Z,69.10
2019-05-15T21:20:33.138Z,68.77
2019-05-15T21:23:38.770Z,68.81
2019-05-15T21:26:43.017Z,68.69
2019-05-15T21:29:49.052Z,68.97
2019-05-15T21:32:54.101Z,69.11
2019-05-15T21:35:58.975Z,69.16
2019-05-15T21:39:04.495Z,69.06
2019-05-15T21:42:08.998Z,68.83
2019-05-15T21:45:14.939Z,68.79
2019-05-15T21:48:19.047Z,68.92
2019-05-15T21:51:23.422Z,69.30
2019-05-15T21:54:28.195Z,69.78
2019-05-15T21:57:36.444Z,70.21
2019-05-15T22:00:42.149Z,70.52
2019-05-15T22:03:48.180Z,71.18
2019-05-15T22:06:52.578Z,71.67
2019-05-15T22:09:56.763Z,72.01
2019-05-15T22:13:01.002Z,72.33
2019-05-15T22:16:05.376Z,72.58
2019-05-15T22:19:10.663Z,72.71
2019-05-15T22:22:14.849Z,73.05
2019-05-15T22:25:19.448Z,73.41
2019-05-15T22:28:23.767Z,73.60
2019-05-15T22:31:28.015Z,73.75
2019-05-15T22:34:32.175Z,74.05
2019-05-15T22:37:38.686Z,74.46
2019-05-15T22:40:42.570Z,74.61
2019-05-15T22:43:48.490Z,74.80
2019-05-15T22:46:52.349Z,75.11
2019-05-15T22:49:56.276Z,74.99
2019-05-15T22:53:00.397Z,74.99
2019-05-15T22:56:04.475Z,75.07
2019-05-15T22:59:08.656Z,75.17
2019-05-15T23:02:13.058Z,75.41
2019-05-15T23:05:24.963Z,75.55
2019-05-15T23:08:22.788Z,75.60
2019-05-15T23:11:26.907Z,75.53
2019-05-15T23:14:30.838Z,75.64
2019-05-15T23:17:34.711Z,75.80
2019-05-15T23:20:38.905Z,75.87
2019-05-15T23:23:42.911Z,76.05
2019-05-15T23:26:47.773Z,76.16
2019-05-15T23:29:51.871Z,76.34
2019-05-15T23:32:58.082Z,76.55
2019-05-15T23:36:02.323Z,76.82
2019-05-15T23:39:07.838Z,77.04
2019-05-15T23:42:11.874Z,77.29
2019-05-15T23:45:17.896Z,77.52
2019-05-15T23:48:21.566Z,77.81
2019-05-15T23:51:27.810Z,77.99
2019-05-15T23:54:31.049Z,78.24
2019-05-15T23:57:34.895Z,78.54
